Time;durP1;ratioP1;P1;durP2;ratioP2;P2;SDS_P1;SDS_P2;PMS_P1;PMS_P2;Temp;Humidity;BMP_temperature;BMP_pressure;BME280_temperature;BME280_humidity;BME280_pressure;Samples;Min_cycle;Max_cycle;Signal;HPM_P1;HPM_P2
2022/06/13 00:00:54;;;;;;;;;7.50;5.50;;;;;28.81;26.77;101982.16;5039796;28;45219;-67
2022/06/13 00:03:19;;;;;;;;;5.00;4.50;;;;;28.76;27.34;101972.72;5035440;28;45245;-68
2022/06/13 00:05:45;;;;;;;;;5.75;4.00;;;;;28.68;27.69;101974.34;5032493;28;45448;-68
2022/06/13 00:08:10;;;;;;;;;7.00;4.50;;;;;28.69;27.27;101979.56;5018130;28;46693;-67
2022/06/13 00:10:36;;;;;;;;;8.25;5.00;;;;;28.58;28.16;101984.97;5041419;28;45226;-68
2022/06/13 00:13:02;;;;;;;;;4.25;2.50;;;;;28.47;28.00;101985.03;5041831;28;45840;-67
2022/06/13 00:15:28;;;;;;;;;4.75;4.25;;;;;28.43;28.18;101987.13;5046687;28;45570;-67
2022/06/13 00:17:53;;;;;;;;;6.75;3.00;;;;;28.44;27.45;101988.81;5042056;28;45437;-67
2022/06/13 00:20:19;;;;;;;;;3.50;3.50;;;;;28.48;27.73;101979.56;5041534;28;45353;-67
2022/06/13 00:22:44;;;;;;;;;3.00;1.00;;;;;28.45;27.90;101984.31;5042427;28;45538;-67
2022/06/13 00:25:10;;;;;;;;;5.50;4.75;;;;;28.57;27.34;101985.09;5041290;28;45641;-67
2022/06/13 00:27:36;;;;;;;;;3.00;3.00;;;;;28.61;28.15;101987.38;5041374;28;45449;-67
2022/06/13 00:30:04;;;;;;;;;7.50;4.25;;;;;28.55;27.95;101987.91;5041778;28;45332;-67
2022/06/13 00:32:29;;;;;;;;;8.25;4.75;;;;;28.53;28.54;101979.16;5040708;28;45377;-66
2022/06/13 00:34:55;;;;;;;;;5.75;5.25;;;;;28.48;27.42;101981.38;5041774;28;45248;-67
2022/06/13 00:37:21;;;;;;;;;6.00;3.25;;;;;28.48;28.31;101979.56;5030223;28;46208;-67
2022/06/13 00:39:46;;;;;;;;;4.50;4.00;;;;;28.57;28.24;101982.41;5032258;28;45607;-67
2022/06/13 00:42:18;;;;;;;;;5.25;4.00;;;;;28.67;28.09;101969.97;5031413;28;45931;-68
2022/06/13 00:45:07;;;;;;;;;3.00;3.00;;;;;28.58;28.20;101971.59;5034622;28;46693;-68
2022/06/13 00:47:33;;;;;;;;;5.00;4.00;;;;;28.51;29.03;101969.56;5031965;28;46317;-68
2022/06/13 00:50:03;;;;;;;;;3.75;3.75;;;;;28.40;28.86;101970.44;5032372;28;45559;-67
2022/06/13 00:52:42;;;;;;;;;5.75;3.25;;;;;28.39;28.28;101966.06;5032166;28;45456;-67
2022/06/13 00:55:13;;;;;;;;;4.00;3.00;;;;;28.45;29.13;101969.13;5037893;28;45403;-68
2022/06/13 00:57:39;;;;;;;;;3.00;3.00;;;;;28.37;28.82;101963.53;5039124;28;45553;-68
2022/06/13 01:00:11;;;;;;;;;7.50;3.00;;;;;28.39;28.92;101963.41;5039124;28;45353;-69
2022/06/13 01:02:40;;;;;;;;;6.50;4.00;;;;;28.35;28.63;101956.63;5020866;28;45571;-69
2022/06/13 01:05:07;;;;;;;;;1.75;1.00;;;;;28.38;28.93;101951.00;5037752;28;45562;-68
2022/06/13 01:07:33;;;;;;;;;3.50;3.25;;;;;28.42;28.59;101947.94;5036838;28;45538;-68
2022/06/13 01:12:44;;;;;;;;;3.00;3.00;;;;;28.50;28.82;101955.34;5037732;28;45809;-69
2022/06/13 01:15:31;;;;;;;;;4.25;4.00;;;;;28.61;28.47;101946.41;5037977;28;45739;-69
2022/06/13 01:18:27;;;;;;;;;4.75;4.75;;;;;28.55;28.97;101945.09;5037396;28;46265;-68
2022/06/13 01:21:01;;;;;;;;;6.75;6.50;;;;;28.47;29.42;101947.59;5035370;28;45629;-69
2022/06/13 01:23:46;;;;;;;;;3.50;2.00;;;;;28.46;29.27;101954.75;5037671;28;45385;-69
2022/06/13 01:26:30;;;;;;;;;4.00;4.00;;;;;28.51;28.92;101938.31;5036967;28;45495;-69
2022/06/13 01:29:21;;;;;;;;;8.25;5.00;;;;;28.54;28.58;101940.72;5035527;28;45864;-69
2022/06/13 01:32:39;;;;;;;;;8.00;5.75;;;;;28.59;28.99;101934.97;5034617;28;45860;-69
2022/06/13 01:35:25;;;;;;;;;5.75;4.00;;;;;28.56;29.19;101930.75;5005514;28;45457;-69
2022/06/13 01:38:05;;;;;;;;;3.50;3.50;;;;;28.64;29.71;101932.78;5030540;28;45317;-69
2022/06/13 01:40:49;;;;;;;;;6.25;5.00;;;;;28.38;29.92;101940.31;5040508;28;45650;-70
2022/06/13 01:43:29;;;;;;;;;4.25;4.00;;;;;28.21;30.26;101948.84;5040061;28;45639;-69
2022/06/13 01:46:06;;;;;;;;;8.00;3.00;;;;;28.21;30.19;101946.19;5041001;28;45334;-69
2022/06/13 01:48:38;;;;;;;;;5.25;4.25;;;;;28.29;29.81;101943.78;5022565;28;45418;-69
2022/06/13 01:51:32;;;;;;;;;3.00;3.00;;;;;28.32;29.33;101947.03;5040528;28;45633;-68
2022/06/13 01:54:32;;;;;;;;;6.00;5.00;;;;;28.22;30.08;101945.22;5029791;28;45338;-69
2022/06/13 01:57:11;;;;;;;;;5.00;5.00;;;;;28.12;29.89;101950.47;5040065;28;45272;-68
2022/06/13 02:00:06;;;;;;;;;6.50;6.50;;;;;28.19;29.63;101951.66;5040258;28;45530;-69
2022/06/13 02:02:50;;;;;;;;;8.00;5.00;;;;;28.41;29.96;101948.06;5037621;28;45353;-68
2022/06/13 02:05:25;;;;;;;;;5.75;5.50;;;;;28.38;29.74;101951.00;5029154;28;45273;-66
2022/06/13 02:07:57;;;;;;;;;7.25;5.00;;;;;28.24;30.21;101953.97;5040463;28;45329;-67
2022/06/13 02:10:28;;;;;;;;;10.75;5.00;;;;;28.18;29.99;101956.16;5040484;28;45150;-67
2022/06/13 02:13:01;;;;;;;;;4.75;4.00;;;;;28.18;30.29;101953.47;5039717;28;46603;-67
2022/06/13 02:15:39;;;;;;;;;6.00;4.50;;;;;28.09;30.86;101956.94;5044760;28;45379;-67
2022/06/13 02:18:28;;;;;;;;;8.25;7.00;;;;;27.97;30.77;101955.25;5039603;28;45312;-67
2022/06/13 02:20:58;;;;;;;;;8.00;5.25;;;;;27.96;31.29;101947.38;5038157;28;45710;-67
2022/06/13 02:23:28;;;;;;;;;6.25;6.00;;;;;27.97;30.53;101947.25;5022048;28;46640;-67
2022/06/13 02:26:16;;;;;;;;;8.75;6.00;;;;;28.05;30.40;101950.16;5039979;28;45681;-67
2022/06/13 02:28:59;;;;;;;;;8.50;6.25;;;;;28.16;30.23;101943.91;5039468;28;45783;-67
2022/06/13 02:31:48;;;;;;;;;8.75;7.00;;;;;28.25;29.85;101947.66;5040002;28;45551;-68
2022/06/13 02:34:24;;;;;;;;;13.25;7.00;;;;;28.14;30.89;101945.84;5039049;28;46754;-67
2022/06/13 02:37:09;;;;;;;;;8.00;6.25;;;;;27.93;31.63;101950.28;5039573;28;45477;-67
2022/06/13 02:39:49;;;;;;;;;8.25;8.00;;;;;27.91;30.90;101949.56;5040198;28;45510;-68
2022/06/13 02:42:23;;;;;;;;;6.25;5.25;;;;;27.93;31.96;101942.28;5039214;28;45475;-67
2022/06/13 02:45:19;;;;;;;;;10.25;7.75;;;;;27.96;32.05;101944.69;5021733;28;46160;-67
2022/06/13 02:47:50;;;;;;;;;10.00;7.50;;;;;27.91;31.47;101939.72;5032276;28;45221;-67
2022/06/13 02:50:25;;;;;;;;;7.25;6.00;;;;;27.96;31.68;101944.69;5039628;28;45294;-66
2022/06/13 02:53:01;;;;;;;;;6.75;5.50;;;;;27.87;31.79;101943.63;5039373;28;45439;-66
2022/06/13 02:55:29;;;;;;;;;10.75;6.75;;;;;27.88;31.50;101937.31;5026774;28;45323;-66
2022/06/13 02:58:06;;;;;;;;;11.25;8.00;;;;;27.88;31.40;101940.84;5015445;28;45507;-66
2022/06/13 03:00:45;;;;;;;;;6.75;5.50;;;;;27.98;31.68;101938.25;5018676;28;45423;-66
2022/06/13 03:03:18;;;;;;;;;8.00;7.75;;;;;28.07;31.29;101945.53;5017582;28;45331;-66
2022/06/13 03:06:16;;;;;;;;;7.00;6.00;;;;;28.07;30.87;101952.69;5018385;28;45650;-66
2022/06/13 03:08:45;;;;;;;;;13.00;7.50;;;;;27.94;31.52;101952.84;4976052;28;45733;-66
2022/06/13 03:11:13;;;;;;;;;6.00;6.00;;;;;27.92;31.57;101952.13;5017598;28;45234;-66
2022/06/13 03:14:14;;;;;;;;;8.00;6.25;;;;;27.93;31.20;101961.84;5014926;28;45601;-66
2022/06/13 03:16:55;;;;;;;;;9.50;7.00;;;;;27.98;31.22;101959.63;5000218;28;45265;-66
2022/06/13 03:19:22;;;;;;;;;9.25;6.75;;;;;28.06;31.59;101961.69;5013847;28;45345;-66
2022/06/13 03:21:52;;;;;;;;;7.00;6.00;;;;;28.16;31.17;101960.78;5017145;28;45340;-66
2022/06/13 03:24:32;;;;;;;;;11.25;7.00;;;;;28.18;31.01;101960.66;5017421;28;45283;-66
2022/06/13 03:27:04;;;;;;;;;12.25;6.50;;;;;28.37;30.78;101966.22;5018236;28;45547;-65
2022/06/13 03:29:39;;;;;;;;;8.00;5.75;;;;;28.21;31.26;101973.78;5016612;28;45358;-66
2022/06/13 03:32:14;;;;;;;;;11.00;8.00;;;;;28.15;30.89;101976.94;5019567;28;45350;-66
2022/06/13 03:34:43;;;;;;;;;4.50;4.00;;;;;28.17;31.20;101975.00;5021899;28;45297;-66
2022/06/13 03:37:44;;;;;;;;;6.25;4.25;;;;;28.19;31.14;101983.75;5009164;28;45440;-66
2022/06/13 03:40:30;;;;;;;;;8.25;6.00;;;;;28.24;31.61;101981.56;5020540;28;45313;-66
2022/06/13 03:43:07;;;;;;;;;13.00;7.00;;;;;28.19;31.69;101986.41;5012828;28;45446;-66
2022/06/13 03:45:41;;;;;;;;;8.00;5.00;;;;;28.12;31.40;101982.56;5011041;28;45483;-66
2022/06/13 03:48:49;;;;;;;;;7.00;5.50;;;;;28.21;30.84;101991.63;5021164;28;46977;-66
2022/06/13 03:51:20;;;;;;;;;10.25;6.00;;;;;28.16;31.25;101989.34;4980600;28;45315;-67
2022/06/13 03:54:07;;;;;;;;;11.00;5.75;;;;;28.22;31.41;101991.50;4968875;28;45348;-67
2022/06/13 03:56:38;;;;;;;;;10.00;8.00;;;;;28.10;31.49;101985.34;4997872;28;45271;-67
2022/06/13 03:59:09;;;;;;;;;10.75;5.25;;;;;28.11;31.04;101984.38;5040331;28;46884;-67
2022/06/13 04:01:43;;;;;;;;;7.50;5.50;;;;;28.24;31.46;101989.59;5042325;28;45622;-67
2022/06/13 04:04:26;;;;;;;;;5.00;5.00;;;;;28.18;31.74;101988.25;5042620;28;45195;-67
2022/06/13 04:06:52;;;;;;;;;7.50;6.00;;;;;28.05;31.64;101981.38;5031221;28;45557;-67
2022/06/13 04:09:22;;;;;;;;;7.75;6.00;;;;;28.09;31.33;101983.66;5042098;28;45425;-67
2022/06/13 04:11:47;;;;;;;;;5.75;4.50;;;;;28.18;31.62;101987.38;5041991;28;45432;-67
2022/06/13 04:14:29;;;;;;;;;6.25;4.00;;;;;28.28;31.13;101987.53;5041881;28;46039;-67
2022/06/13 04:17:03;;;;;;;;;7.50;6.00;;;;;28.32;31.38;101988.97;5028751;28;45404;-67
2022/06/13 04:19:57;;;;;;;;;5.00;5.00;;;;;28.36;30.79;101985.91;5042397;28;45492;-67
2022/06/13 04:22:40;;;;;;;;;11.25;6.50;;;;;28.46;31.69;101986.84;5041883;28;45241;-67
2022/06/13 04:25:29;;;;;;;;;8.75;6.00;;;;;28.41;31.64;101990.88;5042203;28;45360;-66
2022/06/13 04:28:01;;;;;;;;;10.50;6.25;;;;;28.27;31.95;101991.19;5040882;28;45597;-67
2022/06/13 04:30:29;;;;;;;;;9.00;8.00;;;;;28.16;31.97;101990.19;5041586;28;45527;-67
2022/06/13 04:33:12;;;;;;;;;9.25;6.00;;;;;28.10;32.51;101992.53;5041898;28;45670;-67
2022/06/13 04:35:38;;;;;;;;;8.75;5.75;;;;;27.81;32.89;101994.88;5035930;28;45455;-67
2022/06/13 04:38:08;;;;;;;;;13.50;7.00;;;;;27.81;32.59;101989.53;5031890;28;45428;-67
2022/06/13 04:40:39;;;;;;;;;16.50;8.25;;;;;27.85;32.66;101996.34;5033844;28;46366;-70
2022/06/13 04:43:08;;;;;;;;;8.50;6.25;;;;;27.84;32.73;101992.84;5021731;28;45650;-70
2022/06/13 04:45:52;;;;;;;;;8.00;6.25;;;;;27.90;32.50;101988.81;5041243;28;45277;-70
2022/06/13 04:48:18;;;;;;;;;7.00;5.25;;;;;27.93;32.59;101988.56;5022569;28;45296;-70
2022/06/13 04:50:52;;;;;;;;;11.00;7.00;;;;;27.94;32.74;101989.41;5038111;28;45400;-71
2022/06/13 04:53:40;;;;;;;;;12.00;9.75;;;;;27.82;33.29;101996.56;5033490;28;45397;-70
2022/06/13 04:56:05;;;;;;;;;8.00;7.00;;;;;27.88;33.00;101996.09;5035842;28;45492;-70
2022/06/13 04:58:38;;;;;;;;;6.75;6.00;;;;;28.11;32.15;101996.91;5040752;28;45395;-70
2022/06/13 05:01:15;;;;;;;;;12.50;8.00;;;;;28.30;32.70;102001.63;5041161;28;45473;-71
2022/06/13 05:03:43;;;;;;;;;14.00;8.75;;;;;28.25;31.81;102009.16;5029557;28;45295;-72
2022/06/13 05:06:39;;;;;;;;;9.50;7.00;;;;;28.47;32.35;102009.09;5022466;28;45342;-70
2022/06/13 05:09:12;;;;;;;;;16.00;10.25;;;;;28.52;31.68;102008.72;5041178;28;45614;-70
2022/06/13 05:11:43;;;;;;;;;10.25;8.25;;;;;28.69;31.36;102010.81;5040621;28;45190;-70
2022/06/13 05:14:18;;;;;;;;;8.00;5.50;;;;;28.99;31.29;102007.41;5040338;28;45809;-65
2022/06/13 05:17:09;;;;;;;;;11.50;11.25;;;;;29.15;30.81;102010.47;5043707;28;47006;-68
2022/06/13 05:20:06;;;;;;;;;12.25;7.25;;;;;29.22;31.29;102016.13;5020690;28;45533;-69
2022/06/13 05:23:09;;;;;;;;;13.00;9.25;;;;;29.31;30.81;102018.03;5013039;28;47112;-68
2022/06/13 05:25:46;;;;;;;;;10.50;8.75;;;;;29.10;31.15;102010.00;5040281;28;45841;-69
2022/06/13 05:28:14;;;;;;;;;10.50;5.25;;;;;29.03;31.66;102014.19;5039879;28;45557;-68
2022/06/13 05:30:46;;;;;;;;;7.50;7.00;;;;;28.96;31.43;102024.56;5038520;28;45546;-69
2022/06/13 05:33:13;;;;;;;;;8.75;6.25;;;;;28.87;31.30;102024.50;5040679;28;46367;-72
2022/06/13 05:35:43;;;;;;;;;9.00;8.25;;;;;28.84;31.67;102022.91;5040218;28;45475;-74
2022/06/13 05:38:20;;;;;;;;;9.00;7.00;;;;;29.03;31.55;102016.84;5040665;28;45285;-75
2022/06/13 05:40:46;;;;;;;;;11.25;9.75;;;;;29.03;31.46;102022.22;5036705;28;45241;-73
2022/06/13 05:43:13;;;;;;;;;6.00;6.00;;;;;29.01;31.37;102019.66;5033175;28;46570;-74
2022/06/13 05:45:40;;;;;;;;;13.75;10.00;;;;;29.15;31.55;102026.53;5030595;28;45636;-71
2022/06/13 05:48:10;;;;;;;;;17.25;16.25;;;;;29.24;31.39;102031.09;5031025;28;45290;-69
2022/06/13 05:50:35;;;;;;;;;13.25;9.25;;;;;29.33;30.98;102030.28;5030415;28;45502;-68
2022/06/13 05:53:01;;;;;;;;;16.25;9.00;;;;;29.31;31.26;102026.06;5040237;28;45308;-71
2022/06/13 05:55:26;;;;;;;;;11.00;9.25;;;;;29.31;31.23;102037.63;5040303;28;45410;-70
2022/06/13 05:57:51;;;;;;;;;9.50;8.00;;;;;29.18;31.41;102041.47;5039375;28;45393;-67
2022/06/13 06:00:22;;;;;;;;;15.50;8.75;;;;;29.04;32.07;102034.66;5039692;28;45344;-54
2022/06/13 06:02:48;;;;;;;;;9.00;6.75;;;;;29.14;31.95;102037.38;5039421;28;46573;-52
2022/06/13 06:05:14;;;;;;;;;15.25;11.00;;;;;29.44;31.91;102032.06;5036671;28;45349;-55
2022/06/13 06:07:40;;;;;;;;;18.25;14.50;;;;;29.60;31.52;102045.81;5031317;28;45176;-53
2022/06/13 06:10:07;;;;;;;;;15.00;12.00;;;;;29.67;31.30;102036.28;5030948;28;45672;-55
2022/06/13 06:12:32;;;;;;;;;10.50;10.25;;;;;29.84;31.37;102039.31;5029631;28;46293;-52
2022/06/13 06:14:58;;;;;;;;;10.00;7.00;;;;;30.10;30.87;102043.22;5040300;28;45329;-70
2022/06/13 06:17:23;;;;;;;;;10.25;8.50;;;;;30.17;30.75;102040.81;5043265;28;45408;-70
2022/06/13 06:19:49;;;;;;;;;14.75;11.00;;;;;30.33;30.79;102046.50;5020620;28;45673;-70
2022/06/13 06:22:14;;;;;;;;;17.00;9.25;;;;;30.22;30.42;102044.78;5037324;28;45460;-69
2022/06/13 06:24:39;;;;;;;;;16.50;11.25;;;;;30.10;30.88;102056.63;5038251;28;45427;-69
2022/06/13 06:27:05;;;;;;;;;19.50;10.00;;;;;30.09;30.58;102054.06;5038709;28;45683;-70
2022/06/13 06:29:31;;;;;;;;;9.00;8.00;;;;;30.25;29.78;102065.13;5020751;28;46009;-70
2022/06/13 06:31:56;;;;;;;;;10.50;8.50;;;;;30.42;30.00;102055.53;5039293;28;46543;-70
2022/06/13 06:34:21;;;;;;;;;9.75;8.25;;;;;30.38;30.08;102054.97;5038613;28;45329;-69
2022/06/13 06:36:47;;;;;;;;;11.75;9.00;;;;;30.31;30.01;102055.69;5038545;28;45435;-69
2022/06/13 06:39:12;;;;;;;;;8.00;6.50;;;;;30.19;30.22;102060.31;5039268;28;45444;-70
2022/06/13 06:41:38;;;;;;;;;12.75;7.75;;;;;29.98;30.32;102052.31;5036760;28;45384;-71
2022/06/13 06:44:03;;;;;;;;;10.25;7.00;;;;;30.05;30.30;102063.38;5037017;28;45384;-70
2022/06/13 06:46:28;;;;;;;;;12.25;7.25;;;;;30.15;30.51;102069.59;5020009;28;45441;-71
2022/06/13 06:48:54;;;;;;;;;15.50;7.50;;;;;30.42;30.15;102069.78;5038400;28;45282;-71
2022/06/13 06:51:19;;;;;;;;;11.00;7.50;;;;;30.54;29.93;102071.38;5020506;28;47225;-71
2022/06/13 07:01:59;;;;;;;;;11.75;8.75;;;;;31.04;30.58;102082.00;5027257;28;45290;-70
2022/06/13 07:04:37;;;;;;;;;;;;;;;;;;;;;
2022/06/13 07:07:03;;;;;;;;;11.00;8.00;;;;;31.31;29.00;102083.97;5037449;28;67845;-74
2022/06/13 07:09:29;;;;;;;;;10.25;8.75;;;;;31.40;28.76;102087.63;5029559;28;45396;-74
2022/06/13 07:11:55;;;;;;;;;10.25;6.00;;;;;31.44;29.29;102086.34;5038657;28;45573;-70
2022/06/13 07:14:33;;;;;;;;;6.00;5.50;;;;;31.51;28.74;102089.28;5038400;28;45281;-70
2022/06/13 07:17:02;;;;;;;;;8.25;8.00;;;;;31.52;29.08;102081.09;5034835;28;45253;-71
2022/06/13 07:19:27;;;;;;;;;11.75;7.00;;;;;31.60;28.47;102077.66;5038772;28;45452;-76
2022/06/13 07:21:54;;;;;;;;;13.25;8.75;;;;;31.69;28.47;102074.94;5038573;28;45755;-72
2022/06/13 07:24:20;;;;;;;;;12.50;8.75;;;;;31.74;28.23;102074.53;5019719;28;46140;-76
2022/06/13 07:26:46;;;;;;;;;8.75;6.50;;;;;31.96;28.34;102082.19;5020148;28;45471;-75
2022/06/13 07:29:12;;;;;;;;;8.50;8.00;;;;;32.06;28.44;102083.00;5038531;28;45156;-75
2022/06/13 07:31:44;;;;;;;;;9.00;6.00;;;;;32.23;27.98;102078.66;5020041;28;47158;-72
2022/06/13 07:34:16;;;;;;;;;7.25;5.75;;;;;32.30;28.21;102074.41;5038752;28;45646;-72
2022/06/13 07:36:42;;;;;;;;;7.25;7.25;;;;;32.43;27.82;102079.41;5038923;28;45304;-74
2022/06/13 07:39:08;;;;;;;;;9.25;6.00;;;;;32.63;26.59;102089.00;5019037;28;45650;-73
2022/06/13 07:41:35;;;;;;;;;10.50;7.50;;;;;32.49;26.73;102086.88;5038408;28;45913;-72
2022/06/13 07:44:00;;;;;;;;;9.50;5.75;;;;;32.55;27.14;102088.09;5037975;28;45324;-72
2022/06/13 07:46:29;;;;;;;;;9.00;7.50;;;;;32.56;25.93;102087.94;5038855;28;45461;-73
2022/06/13 07:48:54;;;;;;;;;15.50;9.50;;;;;32.68;26.29;102086.72;5051352;28;45156;-72
2022/06/13 07:51:21;;;;;;;;;6.25;6.25;;;;;32.91;26.59;102089.81;5038218;28;45345;-71
2022/06/13 07:53:47;;;;;;;;;7.50;6.50;;;;;33.02;26.25;102085.19;5038679;28;45278;-72
2022/06/13 07:56:15;;;;;;;;;7.00;6.75;;;;;33.09;26.09;102091.66;5038391;28;45261;-71
2022/06/13 07:58:46;;;;;;;;;7.50;7.50;;;;;33.13;26.14;102090.34;5038271;28;45361;-71
2022/06/13 08:01:12;;;;;;;;;7.75;6.00;;;;;33.07;25.06;102090.97;5038480;28;45510;-71
2022/06/13 08:03:38;;;;;;;;;7.50;6.25;;;;;33.15;25.05;102096.41;5020079;28;45691;-71
2022/06/13 08:06:04;;;;;;;;;7.00;5.50;;;;;33.25;24.73;102097.16;5038564;28;45370;-70
2022/06/13 08:08:29;;;;;;;;;9.50;4.50;;;;;33.08;24.40;102100.75;5038440;28;45381;-73
2022/06/13 08:10:59;;;;;;;;;7.00;7.00;;;;;33.05;24.78;102095.66;5037892;28;45344;-72
2022/06/13 08:13:25;;;;;;;;;3.50;3.00;;;;;32.98;24.29;102095.44;5020781;28;45563;-71
2022/06/13 08:15:51;;;;;;;;;7.50;4.00;;;;;33.26;24.94;102098.84;5043188;28;45505;-69
2022/06/13 08:18:17;;;;;;;;;3.50;2.00;;;;;33.31;24.34;102095.69;5039410;28;45365;-71
2022/06/13 08:20:43;;;;;;;;;6.00;3.00;;;;;33.26;22.93;102096.16;5040963;28;45518;-70
2022/06/13 08:23:14;;;;;;;;;6.25;4.25;;;;;33.47;23.77;102082.34;5023327;28;45610;-72
2022/06/13 08:25:41;;;;;;;;;9.00;5.00;;;;;33.37;23.06;102106.69;5038405;28;45421;-70
2022/06/13 08:28:09;;;;;;;;;6.25;4.75;;;;;33.38;23.53;102102.16;5041239;28;45493;-70
2022/06/13 08:30:56;;;;;;;;;7.75;6.00;;;;;33.37;22.99;102104.00;5041741;28;46445;-71
2022/06/13 08:33:22;;;;;;;;;5.75;3.50;;;;;33.39;23.32;102107.38;5041574;28;45662;-70
2022/06/13 08:35:48;;;;;;;;;4.50;4.50;;;;;33.49;22.55;102120.78;5041374;28;45254;-71
2022/06/13 08:38:14;;;;;;;;;3.75;3.25;;;;;33.52;22.64;102109.66;5049498;28;45428;-67
2022/06/13 08:40:48;;;;;;;;;6.00;4.50;;;;;33.75;22.59;102094.63;5024163;28;46916;-68
2022/06/13 08:43:28;;;;;;;;;6.25;5.25;;;;;33.73;22.17;102095.78;5022185;28;45317;-68
2022/06/13 08:46:07;;;;;;;;;7.25;4.25;;;;;33.74;22.74;102098.31;5027538;28;46259;-68
2022/06/13 08:48:44;;;;;;;;;6.75;3.25;;;;;33.79;22.50;102092.44;5041124;28;45394;-70
2022/06/13 08:51:59;;;;;;;;;3.25;3.25;;;;;33.90;22.28;102094.06;5040924;28;46309;-72
2022/06/13 08:54:31;;;;;;;;;6.50;5.00;;;;;33.96;21.32;102096.09;5009851;28;45606;-72
2022/06/13 08:57:00;;;;;;;;;5.00;3.00;;;;;33.93;22.23;102093.72;5041032;28;45279;-72
2022/06/13 08:59:34;;;;;;;;;3.75;3.50;;;;;34.03;21.98;102095.28;5041409;28;45397;-73
2022/06/13 09:02:48;;;;;;;;;5.00;5.00;;;;;33.97;20.49;102098.63;5040919;28;45480;-72
2022/06/13 09:05:25;;;;;;;;;4.00;3.00;;;;;33.86;21.49;102098.94;5022540;28;45329;-72
2022/06/13 09:08:07;;;;;;;;;3.25;1.75;;;;;33.99;21.75;102099.31;5033464;28;45226;-71
2022/06/13 09:10:52;;;;;;;;;4.50;3.25;;;;;34.04;21.74;102088.91;5021314;28;46280;-72
